High Shoals, North Carolina
Current Conditions -  °F | °C
As of 3:55 PM on Thursday 27 Nov 2014 (Local Time) from KIPJ Reporting Station
Overcast Overcast  
Wind Chill: 46°   Ceiling: 5500
Heat Index: 46°   Visibility: 10mi
Dew Point: 26°   Wind: 3mph
Humidity: 45%   Direction: 330°NNW
Pressure: 30.14"   Gusts: NA
Location:  35.4°N, 81.2°W
Report Text: KIPJ 272055Z AUTO 33003KT 10SM BKN055 OVC065 08/M04 A3014 RMK AO2 T00771036
Loading
Personal Weather Stations






























Interactive Weather Map New forecast layout! Learn more

10-Day Weather Forecast

Advertisements
Track Severe Weather on mobile